AirNav   Pilot Hours Calculator
 
 720 users online  

NE01 Schutte Airport
Guide Rock, Nebraska, USA

GOING TO GUIDE ROCK?


FAA INFORMATION EFFECTIVE 03 NOVEMBER 2022

Location

FAA Identifier: NE01
Lat/Long: 40-11-41.0460N 098-21-07.1890W
40-11.684100N 098-21.119817W
40.1947350,-98.3519969
(estimated)
Elevation: 1876 ft. / 571.8 m (surveyed)
Variation: 07E (1985)
From city: 8 miles NW of GUIDE ROCK, NE
Time zone: UTC -6 (UTC -5 during Daylight Saving Time)
Zip code: 68942

Airport Operations

Airport use: Private use. Permission required prior to landing
Activation date: 11/1954
Control tower: no
ARTCC: MINNEAPOLIS CENTER
FSS: COLUMBUS FLIGHT SERVICE STATION
Attendance: UNATNDD
Wind indicator: no
Segmented circle: no

Nearby radio navigation aids

VOR radial/distance  VOR name  Freq  Var
TKOr340/23.7MANKATO VORTAC109.8010E
HSIr165/24.8HASTINGS VOR/DME108.8007E

Airport Services

Airframe service: NONE
Powerplant service: NONE

Runway Information

Runway NW/SE

Dimensions: 2500 x 125 ft. / 762 x 38 m
Surface: turf
RUNWAY NW  RUNWAY SE
Traffic pattern: leftleft

Airport Ownership and Management from official FAA records

Ownership: Privately-owned
Owner: MRS ALFRED SCHUTTE
GUIDE ROCK, NE 68942
Phone (402) 756-3462
Manager: RON SCHUTTE
1417 ROAD 2100
GUIDE ROCK, NE 68942
Phone 402-756-3462

Additional Remarks

FOR CD CTC MINNEAPOLIS ARTCC AT 651-463-5588.

Instrument Procedures

There are no published instrument procedures at NE01.

Some nearby airports with instrument procedures:

7V7 - Red Cloud Municipal Airport (11 nm SW)
12K - Superior Municipal Airport (16 nm SE)
KHSI - Hastings Municipal Airport (25 nm N)
08K - Harvard State Airport (30 nm NE)
K82 - Smith Center Municipal Airport (33 nm SW)
 
Loc | Ops | Rwys | IFR | FBO | Links
Com | Nav | Svcs | Stats | Notes
Area around NE01 (Schutte Airport)
 
Road maps at: MapQuest Bing Google
 
Aerial photo
No photo
 
Sectional chart

 
Airport distance calculator
Flying to Schutte Airport? Find the distance to fly.

From to NE01

Sunrise and sunset
Times for 27-Nov-2022
 Local
(UTC-6)
 Zulu
(UTC)
Morning civil twilight07:0413:04
Sunrise07:3413:34
Sunset17:0923:09
Evening civil twilight17:3923:39

Current date and time
Zulu (UTC)  27-Nov-2022 13:11:35
Local (UTC-6)  27-Nov-2022 07:11:35
 
METAR
KHSI 
25nm N 
271253Z AUTO 35014KT 10SM CLR M01/M04 A2990 RMK AO2 SLP133 T10061039
KK82 
33nm SW 
271255Z AUTO 33013KT 10SM CLR 00/M04 A2992 RMK AO2 T10031037
KHJH 
35nm E 
271255Z AUTO 35013G17KT 10SM CLR 00/M02 A2987 RMK AO2 T00001025
KEAR 
43nm NW 
271256Z AUTO 34014KT 10SM CLR M01/M04 A2991 RMK AO2 SLP139 T10111039 FZRANO
KAUH 
44nm N 
271255Z AUTO 34013KT 10SM CLR M01/M03 A2989 RMK AO2 T10071035
KGRI 
46nm N 
271253Z 35013KT 10SM CLR 00/M04 A2990 RMK AO2 SLP139 T00001039 $
KHDE 
47nm W 
271255Z AUTO 35012G20KT 10SM OVC110 00/M04 A2991 RMK AO2 T00001043
TAF
KEAR 
43nm NW 
271120Z 2712/2812 34015G24KT P6SM SCT120 FM271700 34011KT P6SM SCT120 FM272100 31007KT P6SM SKC FM280100 18007KT P6SM SKC FM280700 19010KT P6SM FEW250 WS007/23040KT
KGRI 
46nm N 
271156Z 2712/2812 35014G24KT P6SM SCT120 FM271700 33011KT P6SM SCT120 FM272200 31006KT P6SM SKC FM280100 18007KT P6SM SKC FM280800 19011KT P6SM FEW250 WS007/22040KT
NOTAMs
Click for the latest NOTAMs
NOTAMs are issued by the DoD/FAA and will open in a separate window not controlled by AirNav.

 

 
 

Would you like to see your business listed on this page?

 If your business provides an interesting product or service to pilots, flight crews, aircraft, or users of the Schutte Airport, you should consider listing it here.  To start the listing process, click on the button below
 
Add a business
 

Other Pages about Schutte Airport

Update a link
 
Copyright © AirNav, LLC. All rights reserved. Privacy Policy  Contact